メインページ
METAR-TAF:

METAR-TAF

空港 :

Revelstoke, ブリティッシュコロンビア州, カナダ

緯度: 50-58N, 経度: 118-11W, 海抜: 443m

現時点の気象観測

当レポートは59分前の03:00(UTC)に作成
変向風 2kt
気温 22°C
湿度 57%
気圧 1020 hPa
視程: 14.5km
晴天

METAR: CYRV 230300Z AUTO VRB02KT 9SM CLR 22/13 A3012 RMK SLP202 DENSITY ALT 2300FT

時間: 20:59 (03:59 UTC)


TAF: 見つかりません

4,000以上の空港の気象観測と天気予報(METAR報とTAF報)

利用可能な観測所は地図上に黄色い丸と赤い丸で示す。

丸の上にカーソルを重ねると観測所名を参照できる。

次にクリックすると気象観測と天気予報を参照できる。

マップの切り替え:黒色「×」印の緑ボタンをクリックして拡大、「-」印の緑ボタンをクリックして縮小、緑色の三角印をクリックして隣りの地図に切り替え


METAR-TAF: